ADDS METAR Data INFO
IDs: Format: Raw Decoded Include TAF

Data at: 0220 UTC 18 Jan 2018

K18A 180215Z AUTO 00000KT 10SM CLR M04/M13 A3034 RMK AO2 T10421130
K18A 180155Z AUTO 31003KT 10SM CLR M04/M13 A3034 RMK AO2 T10411128
K18A 180135Z AUTO 32003KT 10SM CLR M04/M12 A3033 RMK AO2 T10371123
K18A 180115Z AUTO 00000KT 10SM CLR M03/M12 A3032 RMK AO2 T10331121
K18A 180055Z AUTO 28003KT 10SM SCT040 M03/M12 A3032 RMK AO2 T10271118
K18A 180035Z AUTO 29004KT 10SM SCT040 M02/M12 A3031 RMK AO2 T10221116
K18A 180015Z AUTO 31006KT 10SM CLR M02/M11 A3030 RMK AO2 T10181113
K18A 172355Z AUTO 30004KT 10SM SCT044 M01/M10 A3029 RMK AO2 T10151102 10024 21015
K18A 172335Z AUTO 30005KT 10SM SCT046 M01/M10 A3028 RMK AO2 T10111098
K18A 172315Z AUTO 30006KT 10SM SCT046 00/M09 A3026 RMK AO2 T10051095
K18A 172255Z AUTO 28007KT 10SM CLR 00/M09 A3026 RMK AO2 T00011086
K18A 172235Z AUTO 29004KT 10SM SCT050 01/M08 A3025 RMK AO2 T00081082
K18A 172215Z AUTO 28004KT 10SM BKN050 02/M08 A3024 RMK AO2 T00151077
K18A 172155Z AUTO 29005KT 10SM OVC050 01/M08 A3024 RMK AO2 T00101076
K18A 172135Z AUTO 27006KT 10SM OVC050 01/M07 A3023 RMK AO2 T00141067
K18A 172115Z AUTO 27006KT 10SM BKN042 OVC050 02/M06 A3023 RMK AO2 T00171062
K18A 172055Z AUTO 31006KT 10SM BKN037 OVC043 02/M06 A3022 RMK AO2 T00181061
K18A 172035Z AUTO 29007KT 10SM BKN032 OVC041 02/M06 A3022 RMK AO2 T00211057
K18A 172015Z AUTO 26007KT 10SM OVC028 02/M06 A3022 RMK AO2 T00201065
K18A 171955Z AUTO 28003KT 10SM OVC028 01/M07 A3022 RMK AO2 T00141066
K18A 171935Z AUTO 27004KT 10SM OVC026 01/M06 A3022 RMK AO2 T00101064
K18A 171915Z AUTO 26005KT 10SM OVC024 00/M07 A3023 RMK AO2 T00041066
K18A 171855Z AUTO 25006KT 10SM OVC024 00/M06 A3023 RMK AO2 T00001065
K18A 171835Z AUTO 27007KT 10SM OVC022 00/M07 A3024 RMK AO2 T10021068
K18A 171815Z AUTO 26007KT 10SM OVC022 00/M07 A3025 RMK AO2 T10051066
K18A 171755Z AUTO 26006KT 10SM OVC022 00/M06 A3026 RMK AO2 T10051063 10000 21036
K18A 171735Z AUTO 27003KT 10SM BKN022 OVC029 M01/M06 A3027 RMK AO2 T10061060
K18A 171715Z AUTO 25008G14KT 10SM OVC031 00/M06 A3027 RMK AO2 T10011056
K18A 171655Z AUTO 26008KT 10SM BKN026 OVC034 M01/M06 A3028 RMK AO2 T10061057
K18A 171635Z AUTO 26006KT 10SM OVC026 M01/M06 A3028 RMK AO2 T10121059
K18A 171615Z AUTO 28006KT 10SM BKN024 OVC037 M02/M06 A3028 RMK AO2 T10161058
K18A 171555Z AUTO 27005KT 10SM OVC037 M02/M06 A3028 RMK AO2 T10231057
K18A 171535Z AUTO 25004KT 10SM SCT030 OVC035 M03/M06 A3027 RMK AO2 T10301062
K18A 171515Z AUTO 27005KT 10SM SCT024 OVC033 M03/M06 A3027 RMK AO2 T10321062
K18A 171455Z AUTO 27007KT 10SM SCT024 OVC033 M03/M06 A3027 RMK AO2 T10351060
K18A 171435Z AUTO 27003KT 10SM OVC028 M03/M05 A3027 RMK AO2 T10351055
K18A 171415Z AUTO 25006KT 10SM SCT009 OVC033 M04/M05 A3026 RMK AO2 T10361051
K18A 171355Z AUTO 26005KT 10SM SCT007 BKN021 OVC035 M03/M05 A3025 RMK AO2 T10351047
K18A 171335Z AUTO 27005KT 1 1/2SM -SN OVC007 M03/M04 A3025 RMK AO2 T10351045
K18A 171315Z AUTO 26005KT 2 1/2SM -SN OVC007 M03/M04 A3026 RMK AO2 T10301040
K18A 171255Z AUTO 25006KT 3SM -SN OVC007 M03/M04 A3026 RMK AO2 T10261036
K18A 171235Z AUTO 26005KT 7SM -SN OVC007 M02/M03 A3025 RMK AO2 T10211031
K18A 171215Z AUTO 24005KT 7SM -SN BKN007 BKN015 OVC047 M02/M03 A3025 RMK AO2 T10191029
K18A 171155Z AUTO 25004KT 7SM -SN BKN007 BKN014 OVC055 M02/M03 A3025 RMK AO2 T10171028 10040 21017
K18A 171140Z AUTO 27003KT 7SM -SN BKN007 BKN012 OVC065 M02/M03 A3025 RMK AO2 T10161026
K18A 171115Z AUTO 25003KT 4SM -SN OVC007 M01/M02 A3026 RMK AO2 T10131022
K18A 171055Z AUTO 27006KT 5SM -SN OVC007 M01/M02 A3027 RMK AO2 T10131021
K18A 171035Z AUTO 27004KT 3SM -SN OVC005 M01/M02 A3027 RMK AO2 T10101017
K18A 171015Z AUTO 27003KT 4SM -SN OVC005 M01/M01 A3027 RMK AO2 T10071015
K18A 170955Z AUTO 27003KT 7SM -SN OVC005 M01/M01 A3026 RMK AO2 T10061012
K18A 170935Z AUTO 00000KT 2 1/2SM -SN OVC005 00/M01 A3027 RMK AO2 T10031010
K18A 170915Z AUTO 27004KT 2 1/2SM -SN BKN005 OVC022 00/M01 A3027 RMK AO2 T00001007
K18A 170855Z AUTO 27003KT 2 1/2SM -SN BKN005 BKN022 OVC027 00/00 A3026 RMK AO2 T00011005
K18A 170835Z AUTO 26006KT 3SM -SN SCT007 BKN027 OVC044 01/00 A3027 RMK AO2 T00061005
K18A 170815Z AUTO 28003KT 3SM -SN SCT029 SCT038 OVC044 01/00 A3028 RMK AO2 T00111005
K18A 170755Z AUTO 28005KT 10SM -SN OVC046 02/M01 A3028 RMK AO2 T00181006
K18A 170735Z AUTO 28004KT 10SM -SN OVC046 02/00 A3028 RMK AO2 T00211005
K18A 170715Z AUTO 27003KT 10SM OVC046 02/00 A3028 RMK AO2 T00231005
K18A 170655Z AUTO 28005KT 10SM -SN BKN050 BKN060 OVC070 03/00 A3028 RMK AO2 T00261003
K18A 170635Z AUTO 28005KT 10SM SCT050 OVC060 03/00 A3029 RMK AO2 T00301001
K18A 170615Z AUTO 26005KT 10SM OVC050 04/00 A3029 RMK AO2 T00350000
K18A 170555Z AUTO 27003KT 10SM OVC060 04/00 A3028 RMK AO2 T00400001 10080 20040 401051050
K18A 170535Z AUTO 27003KT 10SM OVC060 04/00 A3029 RMK AO2 T00420002
K18A 170515Z AUTO 26004KT 10SM SCT033 SCT043 OVC060 04/00 A3029 RMK AO2 T00440003
K18A 170455Z AUTO 27004KT 10SM BKN033 OVC038 05/00 A3029 RMK AO2 T00450003
K18A 170435Z AUTO 27004KT 10SM BKN040 OVC060 05/01 A3031 RMK AO2 T00460005
K18A 170415Z AUTO 26005KT 10SM SCT042 OVC070 05/01 A3031 RMK AO2 T00490008
K18A 170355Z AUTO 27003KT 10SM OVC070 05/01 A3031 RMK AO2 T00510012
K18A 170335Z AUTO 28007KT 10SM OVC060 06/01 A3031 RMK AO2 T00550012
K18A 170315Z AUTO 28006KT 10SM OVC060 06/02 A3031 RMK AO2 T00590017
K18A 170255Z AUTO 30005KT 10SM OVC060 06/02 A3031 RMK AO2 T00620016
K18A 170235Z AUTO 31007KT 240V320 10SM OVC060 07/01 A3032 RMK AO2 T00670007
K18A 170215Z AUTO 31003KT 10SM OVC060 07/00 A3031 RMK AO2 T00700003
K18A 170155Z AUTO 30005KT 10SM BKN070 OVC075 07/00 A3031 RMK AO2 T00720002
K18A 170135Z AUTO 29005KT 10SM OVC070 07/00 A3031 RMK AO2 T00730000
K18A 170115Z AUTO 00000KT 10SM OVC070 07/00 A3029 RMK AO2 T00741004
K18A 170055Z AUTO 00000KT 10SM OVC070 07/00 A3030 RMK AO2 T00741005
K18A 170035Z AUTO 00000KT 10SM OVC070 07/00 A3030 RMK AO2 T00731004
K18A 170015Z AUTO 00000KT 10SM SCT050 BKN070 OVC080 08/00 A3030 RMK AO2 T00751003
K18A 162355Z AUTO 00000KT 10SM SCT048 BKN070 OVC080 08/00 A3030 RMK AO2 T00801005 10105 20077
K18A 162335Z AUTO 00000KT 10SM SCT046 SCT060 OVC080 08/00 A3030 RMK AO2 T00821004
K18A 162315Z AUTO 00000KT 10SM BKN046 OVC080 09/M01 A3030 RMK AO2 T00881007
K18A 162255Z AUTO 00000KT 10SM OVC046 09/M01 A3031 RMK AO2 T00911010
K18A 162235Z AUTO 00000KT 10SM OVC048 09/M01 A3031 RMK AO2 T00921011
K18A 162215Z AUTO 00000KT 10SM BKN050 OVC110 10/M01 A3031 RMK AO2 T00951012
K18A 162155Z AUTO 22003KT 10SM SCT060 OVC110 10/M01 A3032 RMK AO2 T00961011
K18A 162135Z AUTO 24004KT 10SM OVC120 10/M01 A3032 RMK AO2 T00971014
K18A 162115Z AUTO 23005KT 10SM SCT120 10/M01 A3032 RMK AO2 T01001013
K18A 162055Z AUTO 24004KT 10SM CLR 10/M01 A3033 RMK AO2 T01011015
K18A 162035Z AUTO 23005KT 10SM CLR 10/M02 A3033 RMK AO2 T01011016
K18A 162015Z AUTO 28004KT 10SM CLR 11/M02 A3033 RMK AO2 T01051017
K18A 161955Z AUTO 26004KT 10SM CLR 10/M02 A3033 RMK AO2 T01041018
K18A 161935Z AUTO 24005KT 10SM CLR 10/M02 A3034 RMK AO2 T01011018
K18A 161915Z AUTO 25004KT 10SM CLR 10/M02 A3034 RMK AO2 T00991021
K18A 161855Z AUTO 28003KT 10SM CLR 10/M02 A3035 RMK AO2 T00981022
K18A 161835Z AUTO 24003KT 10SM CLR 09/M03 A3035 RMK AO2 T00931026
K18A 161815Z AUTO 23006KT 10SM CLR 10/M03 A3037 RMK AO2 T00951026
K18A 161755Z AUTO 23008KT 10SM CLR 09/M03 A3037 RMK AO2 T00921029 10092 21046
K18A 161735Z AUTO 00000KT 10SM CLR 08/M03 A3039 RMK AO2 T00841034
K18A 161715Z AUTO 19003KT 10SM CLR 07/M04 A3041 RMK AO2 T00741036
K18A 161655Z AUTO 00000KT 10SM CLR 07/M04 A3042 RMK AO2 T00711039
K18A 161635Z AUTO 26004KT 10SM CLR 07/M05 A3043 RMK AO2 T00651046
K18A 161615Z AUTO 22003KT 10SM CLR 05/M05 A3043 RMK AO2 T00531050
K18A 161555Z AUTO 00000KT 10SM CLR 05/M05 A3044 RMK AO2 T00471050
K18A 161535Z AUTO 00000KT 10SM CLR 04/M04 A3045 RMK AO2 T00401042
K18A 161515Z AUTO 00000KT 10SM CLR 04/M03 A3045 RMK AO2 T00361035
K18A 161455Z AUTO 00000KT 10SM CLR 03/M03 A3045 RMK AO2 T00341028
K18A 161435Z AUTO 00000KT 10SM CLR 01/M03 A3044 RMK AO2 T00131032